| time (UTC) | temp F | wind direction | speed MPH | gust MPH | rain 1hr in | rain 24hr in | rain mn in | humidity % | barometer mb |
| 20260902202904 | 65 | 10 | 5.0 | 9.0 | 0.00 | 0.00 | 0.00 | 87 | 1021.5 |
| 20260902202404 | 65 | 12 | 5.0 | 12.0 | 0.00 | 0.00 | 0.00 | 87 | 1021.6 |
| 20260902201904 | 65 | 16 | 6.0 | 12.0 | 0.00 | 0.00 | 0.00 | 87 | 1021.7 |
| 20260902201404 | 65 | 11 | 7.0 | 14.0 | 0.00 | 0.00 | 0.00 | 86 | 1021.4 |
| 20260902200904 | 66 | 18 | 8.0 | 12.0 | 0.00 | 0.00 | 0.00 | 85 | 1021.5 |
| 20260902200404 | 66 | 20 | 6.0 | 12.0 | 0.00 | 0.00 | 0.00 | 84 | 1021.4 |
| 20260902195404 | 67 | 8 | 7.0 | 12.0 | 0.00 | 0.00 | 0.00 | 83 | 1021.4 |
| 20260902194904 | 67 | 25 | 7.0 | 10.0 | 0.00 | 0.00 | 0.00 | 82 | 1021.2 |
| 20260902194404 | 67 | 8 | 6.0 | 10.0 | 0.00 | 0.00 | 0.00 | 82 | 1021.3 |
| 20260902193404 | 68 | 20 | 7.0 | 13.0 | 0.00 | 0.00 | 0.00 | 79 | 1021.1 |
| 20260902192904 | 68 | 30 | 7.0 | 13.0 | 0.00 | 0.00 | 0.00 | 78 | 1021.2 |
| 20260902192403 | 68 | 30 | 8.0 | 14.0 | 0.00 | 0.00 | 0.00 | 77 | 1021.1 |
| 20260902191904 | 68 | 17 | 9.0 | 16.0 | 0.00 | 0.00 | 0.00 | 76 | 1021.0 |
| 20260902191404 | 69 | 22 | 8.0 | 14.0 | 0.00 | 0.00 | 0.00 | 74 | 1021.0 |
| 20260902190904 | 69 | 23 | 7.0 | 14.0 | 0.00 | 0.00 | 0.00 | 72 | 1020.8 |
| 20260902190404 | 69 | 17 | 10.0 | 17.0 | 0.00 | 0.00 | 0.00 | 72 | 1020.7 |
| 20260902185904 | 70 | 31 | 10.0 | 16.0 | 0.00 | 0.00 | 0.00 | 71 | 1020.8 |
| 20260902185404 | 70 | 17 | 12.0 | 16.0 | 0.00 | 0.00 | 0.00 | 69 | 1020.8 |
| 20260902184904 | 71 | 26 | 10.0 | 16.0 | 0.00 | 0.00 | 0.00 | 68 | 1020.9 |
| 20260902184404 | 71 | 13 | 10.0 | 16.0 | 0.00 | 0.00 | 0.00 | 67 | 1020.9 |
| 20260902183904 | 71 | 19 | 9.0 | 16.0 | 0.00 | 0.00 | 0.00 | 65 | 1020.7 |
| 20260902183404 | 72 | 29 | 11.0 | 17.0 | 0.00 | 0.00 | 0.00 | 65 | 1020.8 |
| 20260902181904 | 73 | 21 | 10.0 | 18.0 | 0.00 | 0.00 | 0.00 | 60 | 1021.0 |
| 20260902181404 | 74 | 14 | 9.0 | 17.0 | 0.00 | 0.00 | 0.00 | 59 | 1020.9 |
| 20260902180904 | 74 | 25 | 14.0 | 18.0 | 0.00 | 0.00 | 0.00 | 58 | 1021.0 |
| 20260902175907 | 75 | 28 | 12.0 | 20.0 | 0.00 | 0.00 | 0.00 | 55 | 1020.7 |
| 20260902175405 | 75 | 27 | 12.0 | 18.0 | 0.00 | 0.00 | 0.00 | 51 | 1020.7 |
| 20260902174904 | 75 | 27 | 12.0 | 21.0 | 0.00 | 0.00 | 0.00 | 51 | 1020.6 |
| 20260902174404 | 76 | 38 | 12.0 | 18.0 | 0.00 | 0.00 | 0.00 | 54 | 1020.7 |
| 20260902173904 | 76 | 26 | 9.0 | 15.0 | 0.00 | 0.00 | 0.00 | 51 | 1020.6 |
| 20260902173404 | 77 | 31 | 9.0 | 15.0 | 0.00 | 0.00 | 0.00 | 50 | 1020.6 |
| 20260902172904 | 77 | 28 | 9.0 | 14.0 | 0.00 | 0.00 | 0.00 | 48 | 1020.8 |
| 20260902172404 | 77 | 28 | 7.0 | 15.0 | 0.00 | 0.00 | 0.00 | 49 | 1020.9 |
| 20260902171404 | 78 | 25 | 5.0 | 15.0 | 0.00 | 0.00 | 0.00 | 52 | 1020.6 |
| 20260902170904 | 79 | 53 | 9.0 | 14.0 | 0.00 | 0.00 | 0.00 | 50 | 1020.8 |
| 20260902170404 | 78 | 45 | 3.0 | 10.0 | 0.00 | 0.00 | 0.00 | 49 | 1020.6 |
| 20260902165904 | 79 | 47 | 7.0 | 13.0 | 0.00 | 0.00 | 0.00 | 49 | 1020.7 |
| 20260902165404 | 79 | 14 | 7.0 | 14.0 | 0.00 | 0.00 | 0.00 | 45 | 1020.9 |
| 20260902164904 | 79 | 24 | 11.0 | 14.0 | 0.00 | 0.00 | 0.00 | 42 | 1020.8 |
| 20260902164404 | 79 | 9 | 9.0 | 15.0 | 0.00 | 0.00 | 0.00 | 41 | 1020.8 |
| 20260902163904 | 79 | 23 | 8.0 | 15.0 | 0.00 | 0.00 | 0.00 | 42 | 1020.9 |
| 20260902163404 | 79 | 10 | 7.0 | 12.0 | 0.00 | 0.00 | 0.00 | 46 | 1020.7 |
| 20260902162904 | 79 | 20 | 9.0 | 15.0 | 0.00 | 0.00 | 0.00 | 46 | 1020.9 |
| 20260902161904 | 79 | 14 | 7.0 | 14.0 | 0.00 | 0.00 | 0.00 | 45 | 1020.9 |
| 20260902161404 | 80 | 37 | 8.0 | 14.0 | 0.00 | 0.00 | 0.00 | 42 | 1021.1 |
| 20260902160904 | 80 | 28 | 9.0 | 13.0 | 0.00 | 0.00 | 0.00 | 40 | 1021.0 |
| 20260902160405 | 80 | 30 | 6.0 | 14.0 | 0.00 | 0.00 | 0.00 | 38 | 1021.2 |
| 20260902155905 | 80 | 21 | 9.0 | 13.0 | 0.00 | 0.00 | 0.00 | 36 | 1021.0 |
| 20260902155405 | 80 | 42 | 7.0 | 14.0 | 0.00 | 0.00 | 0.00 | 35 | 1021.1 |
| 20260902154905 | 80 | 14 | 7.0 | 13.0 | 0.00 | 0.00 | 0.00 | 37 | 1020.9 |
| 20260902154406 | 80 | 21 | 9.0 | 16.0 | 0.00 | 0.00 | 0.00 | 36 | 1021.2 |
| 20260902153911 | 80 | 43 | 5.0 | 10.0 | 0.00 | 0.00 | 0.00 | 40 | 1021.2 |
| 20260902152404 | 79 | 17 | 4.0 | 10.0 | 0.00 | 0.00 | 0.00 | 42 | 1021.4 |
| 20260902151904 | 79 | 8 | 7.0 | 12.0 | 0.00 | 0.00 | 0.00 | 42 | 1021.3 |
| 20260902151404 | 81 | 10 | 9.0 | 13.0 | 0.00 | 0.00 | 0.00 | 39 | 1021.3 |
| 20260902150904 | 80 | 2 | 4.0 | 9.0 | 0.00 | 0.00 | 0.00 | 38 | 1021.4 |
| 20260902150404 | 81 | 2 | 5.0 | 9.0 | 0.00 | 0.00 | 0.00 | 33 | 1021.6 |
| 20260902145404 | 79 | 16 | 5.0 | 13.0 | 0.00 | 0.00 | 0.00 | 34 | 1021.2 |
| 20260902144904 | 79 | 16 | 3.0 | 10.0 | 0.00 | 0.00 | 0.00 | 37 | 1021.4 |
| 20260902144404 | 80 | 32 | 7.0 | 10.0 | 0.00 | 0.00 | 0.00 | 33 | 1021.5 |
| 20260902143904 | 80 | 12 | 3.0 | 6.0 | 0.00 | 0.00 | 0.00 | 34 | 1021.6 |
| 20260902142404 | 78 | 30 | 5.0 | 10.0 | 0.00 | 0.00 | 0.00 | 34 | 1021.8 |
| 20260902140904 | 78 | 17 | 6.0 | 12.0 | 0.00 | 0.00 | 0.00 | 30 | 1021.9 |
| 20260902135904 | 77 | 55 | 5.0 | 9.0 | 0.00 | 0.00 | 0.00 | 38 | 1022.0 |
| 20260902135404 | 76 | 7 | 6.0 | 10.0 | 0.00 | 0.00 | 0.00 | 40 | 1022.1 |
| 20260902134904 | 76 | 6 | 6.0 | 10.0 | 0.00 | 0.00 | 0.00 | 42 | 1022.1 |